Orbital elements of COSMOS 2251 DEB
| Launched | 15 June 1993 |
| Flight ended | – |
| Launch site | Plesetsk Missile and Space Complex, Russia |
| Owner | Commonwealth of Independent States (former USSR) |
| NORAD ID | 34327 |
| Date fetched |
Epoch osculation |
Inc. [°] |
Ecc. | RA asc node [hr] |
Arg Peri. [°] |
Mean anom [°] |
Mean motion [rev/day] |
Abs. mag |
| Date fetched |
Epoch osculation |
Inc. [°] |
Ecc. | RA asc node [hr] |
Arg Peri. [°] |
Mean anom [°] |
Mean motion [rev/day] |
Abs. mag |
| 2026 May 06 17:57 | 2026 May 05 09:20:51 | 73.9932 | 0.00316 | 16.2069 | 23.4330 | 32.8057 | 14.93194 | – |
| 2026 May 05 17:57 | 2026 May 05 09:20:51 | 73.9932 | 0.00316 | 16.2069 | 23.4330 | 32.8057 | 14.93194 | – |
| 2026 May 04 17:57 | 2026 Apr 30 14:59:02 | 73.9925 | 0.00313 | 16.8473 | 34.9831 | 32.8057 | 14.93194 | – |
| 2026 May 03 17:57 | 2026 Apr 30 14:59:02 | 73.9925 | 0.00313 | 16.8473 | 34.9831 | 32.8057 | 14.93194 | – |
| 2026 May 02 17:57 | 2026 Apr 30 14:59:02 | 73.9925 | 0.00313 | 16.8473 | 34.9831 | 32.8057 | 14.93194 | – |
| 2026 May 01 17:56 | 2026 Apr 30 14:59:02 | 73.9925 | 0.00313 | 16.8473 | 34.9831 | 32.8057 | 14.93194 | – |
| 2026 Apr 30 17:56 | 2026 Apr 30 14:59:02 | 73.9925 | 0.00313 | 16.8473 | 34.9831 | 32.8057 | 14.93194 | – |
| 2026 Apr 29 17:57 | 2026 Apr 24 12:54:14 | 73.9922 | 0.00311 | 17.6653 | 49.8422 | 32.8057 | 14.93194 | – |
| 2026 Apr 28 17:56 | 2026 Apr 24 12:54:14 | 73.9922 | 0.00311 | 17.6653 | 49.8422 | 32.8057 | 14.93194 | – |
| 2026 Apr 27 17:58 | 2026 Apr 24 12:54:14 | 73.9922 | 0.00311 | 17.6653 | 49.8422 | 32.8057 | 14.93194 | – |
| 2026 Apr 26 17:58 | 2026 Apr 24 12:54:14 | 73.9922 | 0.00311 | 17.6653 | 49.8422 | 32.8057 | 14.93194 | – |
| 2026 Apr 25 17:58 | 2026 Apr 24 12:54:14 | 73.9922 | 0.00311 | 17.6653 | 49.8422 | 32.8057 | 14.93194 | – |
| 2026 Apr 24 17:59 | 2026 Apr 24 12:54:14 | 73.9922 | 0.00311 | 17.6653 | 49.8422 | 32.8057 | 14.93194 | – |
| 2026 Apr 23 17:57 | 2026 Apr 19 12:12:12 | 73.9922 | 0.00312 | 18.3410 | 61.9602 | 32.8057 | 14.93194 | – |
| 2026 Apr 22 17:57 | 2026 Apr 19 12:12:12 | 73.9922 | 0.00312 | 18.3410 | 61.9602 | 32.8057 | 14.93194 | – |
| 2026 Apr 21 17:57 | 2026 Apr 19 12:12:12 | 73.9922 | 0.00312 | 18.3410 | 61.9602 | 32.8057 | 14.93194 | – |
| 2026 Apr 20 17:57 | 2026 Apr 19 12:12:12 | 73.9922 | 0.00312 | 18.3410 | 61.9602 | 32.8057 | 14.93194 | – |
| 2026 Apr 19 17:58 | 2026 Apr 19 12:12:12 | 73.9922 | 0.00312 | 18.3410 | 61.9602 | 32.8057 | 14.93194 | – |
| 2026 Apr 18 17:56 | 2026 Apr 12 23:00:12 | 73.9920 | 0.00311 | 19.2210 | 77.6427 | 32.8057 | 14.93194 | – |
| 2026 Apr 16 17:57 | 2026 Apr 12 23:00:12 | 73.9920 | 0.00311 | 19.2210 | 77.6427 | 32.8057 | 14.93194 | – |
| 2026 Apr 14 17:57 | 2026 Apr 12 23:00:12 | 73.9920 | 0.00311 | 19.2210 | 77.6427 | 32.8057 | 14.93194 | – |
| 2026 Apr 13 17:57 | 2026 Apr 12 23:00:12 | 73.9920 | 0.00311 | 19.2210 | 77.6427 | 32.8057 | 14.93194 | – |
| 2026 Apr 12 17:57 | 2026 Apr 08 14:02:51 | 73.9927 | 0.00312 | 19.8083 | 88.1128 | 32.8057 | 14.93194 | – |
| 2026 Apr 11 17:57 | 2026 Apr 08 14:02:51 | 73.9927 | 0.00312 | 19.8083 | 88.1128 | 32.8057 | 14.93194 | – |
| 2026 Apr 10 17:58 | 2026 Apr 08 14:02:51 | 73.9927 | 0.00312 | 19.8083 | 88.1128 | 32.8057 | 14.93194 | – |
| 2026 Apr 09 18:01 | 2026 Apr 08 14:02:51 | 73.9927 | 0.00312 | 19.8083 | 88.1128 | 32.8057 | 14.93194 | – |